createdAt,value
2019-04-05T00:00:13.436Z,62.30
2019-04-05T00:01:49.737Z,62.30
2019-04-05T00:03:26.130Z,62.20
2019-04-05T00:05:02.460Z,62.10
2019-04-05T00:06:38.617Z,62.20
2019-04-05T00:08:15.311Z,62.30
2019-04-05T00:09:51.843Z,62.40
2019-04-05T00:11:28.007Z,62.20
2019-04-05T00:13:08.431Z,62.40
2019-04-05T00:14:44.775Z,62.60
2019-04-05T00:16:21.054Z,63.20
2019-04-05T00:17:57.319Z,62.30
2019-04-05T00:19:33.551Z,62.30
2019-04-05T00:21:09.954Z,62.20
2019-04-05T00:22:46.357Z,62.20
2019-04-05T00:24:22.544Z,61.90
2019-04-05T00:25:58.880Z,61.90
2019-04-05T00:27:35.132Z,62.00
2019-04-05T00:29:11.355Z,62.10
2019-04-05T00:30:47.537Z,62.20
2019-04-05T00:32:23.466Z,62.10
2019-04-05T00:34:00.813Z,62.10
2019-04-05T00:35:37.149Z,61.90
2019-04-05T00:37:13.440Z,61.90
2019-04-05T00:38:49.701Z,62.00
2019-04-05T00:40:26.014Z,62.10
2019-04-05T00:42:02.298Z,61.80
2019-04-05T00:43:38.603Z,62.60
2019-04-05T00:45:27.231Z,61.50
2019-04-05T00:46:52.994Z,61.60
2019-04-05T00:48:29.321Z,61.50
2019-04-05T00:50:08.387Z,61.50
2019-04-05T00:51:44.683Z,61.50
2019-04-05T00:53:21.010Z,61.40
2019-04-05T00:54:57.431Z,61.60
2019-04-05T00:56:33.660Z,61.50
2019-04-05T00:58:09.890Z,61.50
2019-04-05T00:59:46.216Z,61.60
2019-04-05T01:01:22.487Z,61.50
2019-04-05T01:02:58.879Z,61.40
2019-04-05T01:04:35.277Z,61.20
2019-04-05T01:06:11.605Z,61.40
2019-04-05T01:07:47.915Z,61.30
2019-04-05T01:09:24.214Z,61.30
2019-04-05T01:11:00.209Z,61.30
2019-04-05T01:12:37.810Z,61.30
2019-04-05T01:14:14.247Z,61.30
2019-04-05T01:15:50.558Z,61.30
2019-04-05T01:17:27.272Z,61.30
2019-04-05T01:19:04.169Z,61.80
2019-04-05T01:20:43.553Z,61.00
2019-04-05T01:22:24.580Z,61.00
2019-04-05T01:24:04.178Z,61.00
2019-04-05T01:25:41.497Z,60.80
2019-04-05T01:27:17.994Z,60.90
2019-04-05T01:28:55.442Z,60.60
2019-04-05T01:30:31.605Z,60.30
2019-04-05T01:32:07.465Z,60.30
2019-04-05T01:33:43.761Z,60.60
2019-04-05T01:35:20.167Z,60.60
2019-04-05T01:36:56.669Z,60.60
2019-04-05T01:38:32.972Z,60.60
2019-04-05T01:40:11.474Z,60.90
2019-04-05T01:41:48.515Z,61.00
2019-04-05T01:43:24.855Z,61.00
2019-04-05T01:45:01.978Z,60.80
2019-04-05T01:46:39.964Z,61.00
2019-04-05T01:48:16.368Z,61.20
2019-04-05T01:49:52.999Z,61.10
2019-04-05T01:51:29.376Z,61.30
2019-04-05T01:53:05.777Z,61.60
2019-04-05T01:54:42.175Z,61.60
2019-04-05T01:56:18.410Z,61.70
2019-04-05T01:57:54.802Z,61.70
2019-04-05T01:59:31.135Z,61.80
2019-04-05T02:01:07.383Z,61.80
2019-04-05T02:02:44.228Z,62.10
2019-04-05T02:04:21.518Z,62.20
2019-04-05T02:05:57.882Z,62.50
2019-04-05T02:07:34.755Z,62.10
2019-04-05T02:09:12.819Z,62.70
2019-04-05T02:10:49.514Z,63.00
2019-04-05T02:12:25.914Z,63.10
2019-04-05T02:14:02.307Z,63.20
2019-04-05T02:15:39.324Z,63.20
2019-04-05T02:17:15.737Z,63.40
2019-04-05T02:18:52.037Z,63.50
2019-04-05T02:20:28.529Z,63.40
2019-04-05T02:22:04.832Z,63.20
2019-04-05T02:23:41.241Z,63.10
2019-04-05T02:25:18.833Z,62.90
2019-04-05T02:26:56.315Z,63.10
2019-04-05T02:28:32.724Z,63.00
2019-04-05T02:30:09.583Z,62.90
2019-04-05T02:31:46.007Z,63.00
2019-04-05T02:33:22.459Z,63.10
2019-04-05T02:34:58.854Z,63.30
2019-04-05T02:36:35.486Z,63.20
2019-04-05T02:38:11.779Z,63.50
2019-04-05T02:39:48.255Z,63.50
2019-04-05T02:41:27.995Z,63.60
2019-04-05T02:43:07.021Z,63.50
2019-04-05T02:44:45.727Z,63.40
2019-04-05T02:46:24.370Z,63.40
2019-04-05T02:48:05.153Z,63.60
2019-04-05T02:49:43.043Z,63.20
2019-04-05T02:51:24.087Z,63.00
2019-04-05T02:53:04.319Z,62.70
2019-04-05T02:54:41.818Z,62.80
2019-04-05T02:56:20.428Z,63.00
2019-04-05T02:57:59.017Z,62.70
2019-04-05T02:59:36.306Z,62.40
2019-04-05T03:01:12.905Z,62.50
2019-04-05T03:02:51.137Z,62.40
2019-04-05T03:04:28.155Z,62.30
2019-04-05T03:06:06.847Z,62.30
2019-04-05T03:07:43.537Z,62.00
2019-04-05T03:09:20.772Z,61.90
2019-04-05T03:11:15.356Z,61.90
2019-04-05T03:12:51.670Z,61.60
2019-04-05T03:14:29.799Z,61.50
2019-04-05T03:16:12.895Z,61.10
2019-04-05T03:17:49.383Z,62.10
2019-04-05T03:19:29.848Z,61.40
2019-04-05T03:21:09.235Z,61.40
2019-04-05T03:22:45.673Z,61.40
2019-04-05T03:24:26.386Z,61.20
2019-04-05T03:26:05.964Z,60.90
2019-04-05T03:27:42.459Z,61.00
2019-04-05T03:29:19.225Z,61.70
2019-04-05T03:30:56.514Z,60.80
2019-04-05T03:32:33.248Z,61.00
2019-04-05T03:34:09.997Z,61.70
2019-04-05T03:35:46.925Z,62.00
2019-04-05T03:37:23.708Z,62.60
2019-04-05T03:39:01.901Z,63.00
2019-04-05T03:40:38.696Z,63.20
2019-04-05T03:42:16.021Z,63.30
2019-04-05T03:43:52.149Z,63.60
2019-04-05T03:45:28.431Z,63.60
2019-04-05T03:47:05.135Z,63.60
2019-04-05T03:48:41.757Z,63.50
2019-04-05T03:50:18.260Z,62.70
2019-04-05T03:51:54.963Z,62.40
2019-04-05T03:53:32.374Z,62.20
2019-04-05T03:55:08.969Z,62.10
2019-04-05T03:56:45.763Z,62.10
2019-04-05T03:58:23.356Z,62.20
2019-04-05T03:59:59.956Z,62.20
2019-04-05T04:01:36.558Z,62.50
2019-04-05T04:03:14.038Z,62.50
2019-04-05T04:04:50.380Z,62.40
2019-04-05T04:06:26.989Z,62.80
2019-04-05T04:08:03.401Z,62.70
2019-04-05T04:09:39.985Z,62.70
2019-04-05T04:11:16.595Z,62.80
2019-04-05T04:12:53.142Z,63.20
2019-04-05T04:14:30.451Z,63.20
2019-04-05T04:16:07.351Z,63.20
2019-04-05T04:17:45.061Z,63.20
2019-04-05T04:19:21.584Z,63.70
2019-04-05T04:21:02.261Z,63.00
2019-04-05T04:22:38.848Z,62.80
2019-04-05T04:24:35.900Z,62.40
2019-04-05T04:26:12.425Z,62.30
2019-04-05T04:27:49.027Z,61.90
2019-04-05T04:29:26.009Z,61.30
2019-04-05T04:31:04.109Z,60.90
2019-04-05T04:32:40.437Z,60.10
2019-04-05T04:34:16.753Z,59.40
2019-04-05T04:35:54.773Z,59.00
2019-04-05T04:37:31.066Z,58.90
2019-04-05T04:39:08.529Z,58.90
2019-04-05T04:40:46.074Z,58.90
2019-04-05T04:42:23.493Z,58.70
2019-04-05T04:43:59.888Z,58.60
2019-04-05T04:45:36.790Z,58.90
2019-04-05T04:47:25.538Z,59.00
2019-04-05T04:48:51.407Z,58.90
2019-04-05T04:50:28.380Z,58.90
2019-04-05T04:52:04.983Z,58.60
2019-04-05T04:53:41.699Z,57.60
2019-04-05T04:55:18.500Z,57.20
2019-04-05T04:56:54.809Z,55.30
2019-04-05T04:58:31.614Z,54.60
2019-04-05T05:00:08.519Z,54.80
2019-04-05T05:01:45.140Z,53.50
2019-04-05T05:03:21.654Z,53.00
2019-04-05T05:04:59.719Z,51.80
2019-04-05T05:06:36.377Z,51.20
2019-04-05T05:08:12.902Z,49.80
2019-04-05T05:09:50.328Z,50.70
2019-04-05T05:11:27.131Z,51.10
2019-04-05T05:13:03.836Z,49.30
2019-04-05T05:14:40.580Z,49.20
2019-04-05T05:16:17.433Z,48.30
2019-04-05T05:17:58.819Z,48.90
2019-04-05T05:19:33.006Z,50.40
2019-04-05T05:21:10.005Z,49.10
2019-04-05T05:22:47.037Z,48.90
2019-04-05T05:24:23.842Z,50.20
2019-04-05T05:26:00.056Z,50.10
2019-04-05T05:27:36.907Z,50.90
2019-04-05T05:29:13.745Z,52.00
2019-04-05T05:30:50.354Z,50.60
2019-04-05T05:32:27.436Z,50.80
2019-04-05T05:34:05.843Z,51.60
2019-04-05T05:35:43.770Z,50.60
2019-04-05T05:37:20.980Z,50.60
2019-04-05T05:38:57.498Z,49.00
2019-04-05T05:40:35.404Z,47.80
2019-04-05T05:42:12.003Z,48.10
2019-04-05T05:43:48.449Z,48.70
2019-04-05T05:45:24.784Z,48.90
2019-04-05T05:47:01.193Z,48.10
2019-04-05T05:48:39.389Z,47.20
2019-04-05T05:50:15.931Z,47.40
2019-04-05T05:51:53.043Z,47.20
2019-04-05T05:53:29.482Z,46.70
2019-04-05T05:55:07.002Z,47.50
2019-04-05T05:56:43.143Z,47.80
2019-04-05T05:58:19.344Z,48.00
2019-04-05T05:59:56.036Z,47.70
2019-04-05T06:01:32.383Z,48.20
2019-04-05T06:03:10.792Z,47.80
2019-04-05T06:04:46.432Z,46.90
2019-04-05T06:06:22.880Z,48.00
2019-04-05T06:08:00.929Z,47.30
2019-04-05T06:09:36.567Z,48.50
2019-04-05T06:11:14.545Z,48.10
2019-04-05T06:12:50.811Z,48.50
2019-04-05T06:14:26.612Z,48.30
2019-04-05T06:16:04.213Z,47.80
2019-04-05T06:17:40.602Z,49.00
2019-04-05T06:19:17.999Z,47.80
2019-04-05T06:20:54.102Z,47.50
2019-04-05T06:22:30.441Z,47.00
2019-04-05T06:24:06.855Z,46.30
2019-04-05T06:25:43.079Z,47.00
2019-04-05T06:27:19.502Z,47.10
2019-04-05T06:28:55.682Z,46.80
2019-04-05T06:30:31.925Z,46.20
2019-04-05T06:32:08.412Z,45.70
2019-04-05T06:33:44.584Z,46.30
2019-04-05T06:35:22.412Z,46.90
2019-04-05T06:36:58.719Z,47.10
2019-04-05T06:38:34.942Z,46.10
2019-04-05T06:40:12.411Z,46.60
2019-04-05T06:41:48.587Z,45.90
2019-04-05T06:43:24.967Z,47.60
2019-04-05T06:45:01.247Z,47.30
2019-04-05T06:46:37.452Z,45.70
2019-04-05T06:48:24.144Z,45.50
2019-04-05T06:49:51.729Z,45.30
2019-04-05T06:51:27.888Z,46.30
2019-04-05T06:53:04.419Z,44.80
2019-04-05T06:54:40.929Z,45.80
2019-04-05T06:56:17.097Z,45.30
2019-04-05T06:57:54.006Z,45.60
2019-04-05T06:59:30.497Z,45.90
2019-04-05T07:01:07.122Z,45.70
2019-04-05T07:02:43.396Z,45.00
2019-04-05T07:04:31.181Z,44.50
2019-04-05T07:06:07.686Z,44.80
2019-04-05T07:07:43.932Z,44.90
2019-04-05T07:09:20.192Z,47.00
2019-04-05T07:10:56.564Z,44.50
2019-04-05T07:12:32.808Z,44.20
2019-04-05T07:14:09.183Z,43.00
2019-04-05T07:15:45.456Z,43.60
2019-04-05T07:17:21.800Z,44.10
2019-04-05T07:18:59.055Z,43.90
2019-04-05T07:20:35.299Z,44.70
2019-04-05T07:22:11.542Z,43.60
2019-04-05T07:23:47.648Z,44.80
2019-04-05T07:25:24.069Z,43.50
2019-04-05T07:27:00.402Z,43.10
2019-04-05T07:28:36.700Z,43.60
2019-04-05T07:30:13.611Z,42.50
2019-04-05T07:31:50.055Z,43.60
2019-04-05T07:33:26.293Z,43.20
2019-04-05T07:35:02.642Z,43.80
2019-04-05T07:36:38.810Z,44.80
2019-04-05T07:38:15.081Z,44.30
2019-04-05T07:39:51.417Z,43.10
2019-04-05T07:41:28.280Z,44.00
2019-04-05T07:43:04.746Z,42.90
2019-04-05T07:44:41.312Z,44.30
2019-04-05T07:46:17.627Z,43.60
2019-04-05T07:47:53.864Z,43.20
2019-04-05T07:49:30.204Z,42.50
2019-04-05T07:51:06.519Z,42.60
2019-04-05T07:52:42.614Z,42.20
2019-04-05T07:54:18.783Z,41.70
2019-04-05T07:55:54.944Z,41.90
2019-04-05T07:57:31.211Z,41.40
2019-04-05T07:59:07.523Z,42.40
2019-04-05T08:00:51.277Z,43.10
2019-04-05T08:02:27.588Z,43.00
2019-04-05T08:04:03.897Z,43.40
2019-04-05T08:05:40.505Z,42.70
2019-04-05T08:07:19.939Z,42.50
2019-04-05T08:09:07.251Z,42.20
2019-04-05T08:10:45.810Z,44.20
2019-04-05T08:12:24.057Z,43.80
2019-04-05T08:14:03.264Z,43.70
2019-04-05T08:15:39.750Z,43.30
2019-04-05T08:17:16.182Z,43.30
2019-04-05T08:18:58.151Z,43.10
2019-04-05T08:20:30.540Z,43.40
2019-04-05T08:22:06.962Z,44.10
2019-04-05T08:23:43.688Z,43.70
2019-04-05T08:25:20.075Z,41.20
2019-04-05T08:26:56.312Z,42.30
2019-04-05T08:28:32.411Z,40.70
2019-04-05T08:30:09.021Z,41.30
2019-04-05T08:31:45.307Z,42.10
2019-04-05T08:33:21.540Z,41.80
2019-04-05T08:34:57.788Z,40.60
2019-04-05T08:36:34.033Z,40.90
2019-04-05T08:38:09.854Z,41.20
2019-04-05T08:39:46.136Z,39.90
2019-04-05T08:41:22.668Z,41.10
2019-04-05T08:42:58.917Z,39.90
2019-04-05T08:44:35.100Z,39.20
2019-04-05T08:46:11.335Z,40.10
2019-04-05T08:47:47.611Z,39.80
2019-04-05T08:49:23.860Z,39.60
2019-04-05T08:51:00.171Z,39.80
2019-04-05T08:52:36.591Z,40.20
2019-04-05T08:54:12.858Z,40.30
2019-04-05T08:55:48.668Z,39.70
2019-04-05T08:57:24.933Z,38.80
2019-04-05T08:59:00.866Z,39.00
2019-04-05T09:00:37.297Z,39.60
2019-04-05T09:02:13.539Z,37.80
2019-04-05T09:03:49.963Z,38.20
2019-04-05T09:05:26.226Z,37.70
2019-04-05T09:07:02.582Z,38.30
2019-04-05T09:08:38.823Z,37.80
2019-04-05T09:10:16.312Z,38.00
2019-04-05T09:11:52.558Z,37.70
2019-04-05T09:13:28.919Z,38.00
2019-04-05T09:15:07.027Z,39.50
2019-04-05T09:16:43.270Z,38.00
2019-04-05T09:18:19.617Z,37.60
2019-04-05T09:19:56.173Z,38.20
2019-04-05T09:21:32.537Z,37.70
2019-04-05T09:23:08.858Z,37.70
2019-04-05T09:24:45.083Z,38.10
2019-04-05T09:26:21.283Z,37.70
2019-04-05T09:27:57.691Z,38.10
2019-04-05T09:29:34.161Z,37.40
2019-04-05T09:31:10.582Z,37.30
2019-04-05T09:32:46.781Z,37.20
2019-04-05T09:34:23.368Z,37.40
2019-04-05T09:36:00.074Z,38.60
2019-04-05T09:37:36.416Z,38.20
2019-04-05T09:39:15.641Z,38.10
2019-04-05T09:40:51.815Z,37.80
2019-04-05T09:42:28.405Z,39.20
2019-04-05T09:44:04.977Z,38.10
2019-04-05T09:45:41.353Z,36.90
2019-04-05T09:47:18.117Z,36.70
2019-04-05T09:48:54.401Z,36.50
2019-04-05T09:50:30.815Z,36.60
2019-04-05T09:52:07.298Z,37.70
2019-04-05T09:53:43.487Z,37.30
2019-04-05T09:55:19.671Z,37.00
2019-04-05T09:56:56.928Z,36.90
2019-04-05T09:58:33.364Z,36.50
2019-04-05T10:00:17.061Z,37.60
2019-04-05T10:01:53.328Z,36.00
2019-04-05T10:03:29.639Z,37.50
2019-04-05T10:05:07.754Z,37.00
2019-04-05T10:06:43.841Z,36.80
2019-04-05T10:08:20.054Z,35.30
2019-04-05T10:09:56.550Z,35.00
2019-04-05T10:11:32.831Z,35.30
2019-04-05T10:13:09.937Z,36.40
2019-04-05T10:14:46.466Z,36.90
2019-04-05T10:16:22.770Z,35.80
2019-04-05T10:17:59.004Z,35.20
2019-04-05T10:19:35.279Z,35.10
2019-04-05T10:21:11.567Z,35.40
2019-04-05T10:22:47.797Z,36.00
2019-04-05T10:24:24.135Z,35.20
2019-04-05T10:26:00.306Z,35.50
2019-04-05T10:27:36.620Z,35.00
2019-04-05T10:29:12.787Z,36.00
2019-04-05T10:30:51.802Z,34.80
2019-04-05T10:32:28.157Z,35.80
2019-04-05T10:34:04.629Z,35.30
2019-04-05T10:35:40.864Z,34.80
2019-04-05T10:37:17.118Z,34.60
2019-04-05T10:38:55.525Z,34.30
2019-04-05T10:40:32.883Z,35.10
2019-04-05T10:42:36.949Z,35.00
2019-04-05T10:44:15.556Z,35.70
2019-04-05T10:45:51.836Z,36.60
2019-04-05T10:47:28.358Z,35.30
2019-04-05T10:49:05.206Z,34.80
2019-04-05T10:50:41.540Z,34.70
2019-04-05T10:52:17.642Z,35.30
2019-04-05T10:53:53.739Z,33.60
2019-04-05T10:55:30.011Z,33.90
2019-04-05T10:57:06.594Z,34.10
2019-04-05T10:58:42.819Z,33.00
2019-04-05T11:00:21.502Z,32.80
2019-04-05T11:01:57.773Z,33.60
2019-04-05T11:03:33.970Z,33.50
2019-04-05T11:05:11.083Z,34.90
2019-04-05T11:06:47.328Z,35.30
2019-04-05T11:08:23.635Z,35.60
2019-04-05T11:09:59.946Z,35.10
2019-04-05T11:11:36.230Z,34.70
2019-04-05T11:13:13.444Z,34.80
2019-04-05T11:14:50.810Z,33.60
2019-04-05T11:16:26.962Z,34.60
2019-04-05T11:18:04.719Z,33.80
2019-04-05T11:19:40.969Z,33.70
2019-04-05T11:21:18.394Z,33.90
2019-04-05T11:22:54.725Z,33.30
2019-04-05T11:24:32.030Z,34.40
2019-04-05T11:26:08.222Z,34.30
2019-04-05T11:27:44.387Z,33.40
2019-04-05T11:29:20.490Z,33.20
2019-04-05T11:30:56.716Z,33.50
2019-04-05T11:32:33.149Z,34.40
2019-04-05T11:34:09.556Z,34.10
2019-04-05T11:35:46.070Z,34.30
2019-04-05T11:37:22.879Z,34.20
2019-04-05T11:38:59.304Z,33.70
2019-04-05T11:40:36.117Z,33.40
2019-04-05T11:42:12.358Z,33.40
2019-04-05T11:43:52.244Z,32.90
2019-04-05T11:45:29.058Z,32.50
2019-04-05T11:47:06.074Z,33.40
2019-04-05T11:48:43.917Z,34.00
2019-04-05T11:50:33.553Z,32.40
2019-04-05T11:51:59.496Z,33.40
2019-04-05T11:53:35.664Z,33.90
2019-04-05T11:55:12.410Z,33.80
2019-04-05T11:56:48.680Z,32.50
2019-04-05T11:58:24.955Z,32.80
2019-04-05T12:00:01.170Z,32.00
2019-04-05T12:01:39.177Z,33.30
2019-04-05T12:03:32.364Z,33.80
2019-04-05T12:05:08.947Z,32.80
2019-04-05T12:06:45.219Z,33.80
2019-04-05T12:08:21.627Z,33.40
2019-04-05T12:09:58.044Z,33.50
2019-04-05T12:11:34.138Z,32.80
2019-04-05T12:13:10.323Z,31.70
2019-04-05T12:14:47.688Z,32.70
2019-04-05T12:16:23.994Z,33.80
2019-04-05T12:18:00.167Z,33.10
2019-04-05T12:19:38.090Z,32.10
2019-04-05T12:21:14.539Z,33.40
2019-04-05T12:22:52.493Z,32.20
2019-04-05T12:24:32.378Z,32.50
2019-04-05T12:26:07.108Z,33.50
2019-04-05T12:27:43.316Z,32.10
2019-04-05T12:29:19.521Z,33.00
2019-04-05T12:30:55.861Z,33.50
2019-04-05T12:32:33.678Z,33.60
2019-04-05T12:34:10.148Z,34.10
2019-04-05T12:35:46.441Z,33.80
2019-04-05T12:37:22.690Z,33.30
2019-04-05T12:38:59.163Z,32.90
2019-04-05T12:40:35.406Z,33.10
2019-04-05T12:42:12.245Z,33.30
2019-04-05T12:43:50.866Z,33.60
2019-04-05T12:45:27.096Z,32.70
2019-04-05T12:47:03.262Z,33.10
2019-04-05T12:48:39.515Z,31.70
2019-04-05T12:50:16.617Z,33.10
2019-04-05T12:51:53.317Z,33.40
2019-04-05T12:53:29.623Z,33.30
2019-04-05T12:55:08.146Z,33.20
2019-04-05T12:56:44.890Z,32.30
2019-04-05T12:58:21.133Z,32.20
2019-04-05T12:59:57.411Z,32.90
2019-04-05T13:01:33.687Z,31.80
2019-04-05T13:03:09.806Z,31.50
2019-04-05T13:04:46.214Z,31.50
2019-04-05T13:06:22.719Z,31.60
2019-04-05T13:07:58.906Z,30.50
2019-04-05T13:09:35.164Z,30.90
2019-04-05T13:11:11.586Z,31.00
2019-04-05T13:12:47.910Z,31.80
2019-04-05T13:14:26.085Z,31.00
2019-04-05T13:16:01.952Z,31.50
2019-04-05T13:17:38.198Z,32.60
2019-04-05T13:19:14.635Z,32.40
2019-04-05T13:20:51.073Z,32.30
2019-04-05T13:22:27.412Z,32.00
2019-04-05T13:24:04.452Z,31.10
2019-04-05T13:25:42.937Z,31.20
2019-04-05T13:27:19.203Z,31.60
2019-04-05T13:28:55.009Z,32.60
2019-04-05T13:30:31.429Z,32.90
2019-04-05T13:32:07.787Z,32.90
2019-04-05T13:33:43.940Z,32.90
2019-04-05T13:35:20.354Z,32.60
2019-04-05T13:36:56.662Z,32.70
2019-04-05T13:38:32.905Z,33.20
2019-04-05T13:40:10.071Z,33.60
2019-04-05T13:41:46.280Z,33.70
2019-04-05T13:43:22.623Z,34.40
2019-04-05T13:44:58.965Z,34.60
2019-04-05T13:46:38.277Z,35.00
2019-04-05T13:48:13.296Z,34.80
2019-04-05T13:49:49.534Z,34.50
2019-04-05T13:51:28.055Z,34.90
2019-04-05T13:53:04.694Z,34.40
2019-04-05T13:54:41.028Z,34.00
2019-04-05T13:56:17.241Z,33.50
2019-04-05T13:57:53.357Z,33.90
2019-04-05T13:59:30.849Z,34.10
2019-04-05T14:01:07.465Z,34.40
2019-04-05T14:02:43.772Z,33.70
2019-04-05T14:04:21.982Z,34.50
2019-04-05T14:05:58.304Z,34.50
2019-04-05T14:07:34.653Z,35.10
2019-04-05T14:09:12.032Z,35.90
2019-04-05T14:10:49.474Z,35.80
2019-04-05T14:12:25.732Z,35.80
2019-04-05T14:14:01.979Z,36.00
2019-04-05T14:15:41.815Z,35.80
2019-04-05T14:17:16.384Z,36.20
2019-04-05T14:18:53.066Z,37.10
2019-04-05T14:20:29.546Z,36.60
2019-04-05T14:22:08.957Z,36.90
2019-04-05T14:23:44.031Z,36.60
2019-04-05T14:25:23.485Z,36.80
2019-04-05T14:27:02.946Z,36.20
2019-04-05T14:28:37.420Z,36.10
2019-04-05T14:30:14.385Z,36.50
2019-04-05T14:31:50.585Z,36.90
2019-04-05T14:33:26.683Z,35.40
2019-04-05T14:35:02.944Z,35.30
2019-04-05T14:36:39.186Z,35.00
2019-04-05T14:38:15.419Z,34.50
2019-04-05T14:39:51.588Z,34.80
2019-04-05T14:41:27.933Z,34.50
2019-04-05T14:43:04.448Z,34.50
2019-04-05T14:44:41.804Z,34.80
2019-04-05T14:46:18.147Z,35.00
2019-04-05T14:47:57.616Z,35.30
2019-04-05T14:49:32.316Z,36.00
2019-04-05T14:51:08.598Z,36.30
2019-04-05T14:52:44.834Z,36.60
2019-04-05T14:54:21.284Z,36.80
2019-04-05T14:55:59.271Z,37.10
2019-04-05T14:57:36.663Z,37.40
2019-04-05T14:59:13.054Z,37.20
2019-04-05T15:00:49.367Z,37.00
2019-04-05T15:02:25.611Z,37.20
2019-04-05T15:04:01.909Z,36.90
2019-04-05T15:05:38.218Z,37.40
2019-04-05T15:07:14.645Z,37.70
2019-04-05T15:08:52.340Z,37.20
2019-04-05T15:10:29.003Z,37.80
2019-04-05T15:12:06.086Z,37.30
2019-04-05T15:13:42.355Z,38.00
2019-04-05T15:15:18.709Z,38.40
2019-04-05T15:16:56.145Z,38.50
2019-04-05T15:18:33.650Z,38.30
2019-04-05T15:20:10.969Z,38.80
2019-04-05T15:21:47.142Z,39.00
2019-04-05T15:23:26.448Z,39.10
2019-04-05T15:25:03.489Z,39.70
2019-04-05T15:26:40.005Z,39.20
2019-04-05T15:28:16.283Z,39.30
2019-04-05T15:29:55.340Z,39.50
2019-04-05T15:31:30.411Z,40.10
2019-04-05T15:33:06.712Z,39.90
2019-04-05T15:34:42.896Z,39.60
2019-04-05T15:36:18.992Z,39.90
2019-04-05T15:37:55.138Z,39.90
2019-04-05T15:39:32.570Z,40.20
2019-04-05T15:41:08.912Z,40.50
2019-04-05T15:42:45.071Z,40.60
2019-04-05T15:44:21.343Z,40.20
2019-04-05T15:45:58.852Z,40.40
2019-04-05T15:47:35.123Z,40.20
2019-04-05T15:49:11.435Z,40.40
2019-04-05T15:50:49.416Z,39.70
2019-04-05T15:52:30.105Z,40.00
2019-04-05T15:54:03.720Z,40.10
2019-04-05T15:55:40.039Z,40.30
2019-04-05T15:57:16.443Z,40.60
2019-04-05T15:58:52.848Z,40.90
2019-04-05T16:00:45.946Z,40.90
2019-04-05T16:02:22.352Z,41.10
2019-04-05T16:04:00.525Z,41.40
2019-04-05T16:05:36.740Z,40.90
2019-04-05T16:07:13.093Z,41.20
2019-04-05T16:08:49.400Z,41.20
2019-04-05T16:10:25.917Z,41.10
2019-04-05T16:12:02.262Z,40.70
2019-04-05T16:13:42.631Z,40.60
2019-04-05T16:15:18.934Z,40.20
2019-04-05T16:16:55.331Z,40.10
2019-04-05T16:18:31.569Z,40.20
2019-04-05T16:20:11.958Z,40.80
2019-04-05T16:21:49.518Z,41.30
2019-04-05T16:23:25.785Z,41.80
2019-04-05T16:25:03.708Z,42.00
2019-04-05T16:26:40.253Z,42.00
2019-04-05T16:28:17.562Z,42.20
2019-04-05T16:29:53.836Z,42.30
2019-04-05T16:31:30.202Z,42.20
2019-04-05T16:33:06.432Z,42.60
2019-04-05T16:34:42.764Z,42.90
2019-04-05T16:36:18.856Z,43.10
2019-04-05T16:37:55.624Z,43.20
2019-04-05T16:39:31.963Z,43.30
2019-04-05T16:41:08.216Z,43.20
2019-04-05T16:42:44.532Z,43.60
2019-04-05T16:44:20.808Z,44.00
2019-04-05T16:45:57.046Z,43.30
2019-04-05T16:47:33.327Z,43.50
2019-04-05T16:49:10.778Z,43.60
2019-04-05T16:50:47.013Z,44.10
2019-04-05T16:52:23.242Z,44.20
2019-04-05T16:54:00.537Z,44.30
2019-04-05T16:55:36.901Z,44.30
2019-04-05T16:57:14.150Z,44.60
2019-04-05T16:58:50.353Z,44.80
2019-04-05T17:00:27.849Z,45.30
2019-04-05T17:02:04.433Z,45.30
2019-04-05T17:03:40.767Z,45.50
2019-04-05T17:05:18.204Z,46.00
2019-04-05T17:06:54.423Z,46.00
2019-04-05T17:08:30.664Z,46.20
2019-04-05T17:10:08.174Z,46.30
2019-04-05T17:11:44.345Z,46.40
2019-04-05T17:13:20.539Z,46.60
2019-04-05T17:14:56.947Z,47.60
2019-04-05T17:16:33.184Z,47.20
2019-04-05T17:18:09.461Z,47.20
2019-04-05T17:19:45.713Z,47.60
2019-04-05T17:21:21.946Z,47.70
2019-04-05T17:22:58.894Z,48.00
2019-04-05T17:24:35.285Z,48.40
2019-04-05T17:26:11.700Z,48.40
2019-04-05T17:27:47.955Z,48.60
2019-04-05T17:29:24.810Z,48.70
2019-04-05T17:31:01.054Z,49.50
2019-04-05T17:32:37.376Z,49.50
2019-04-05T17:34:13.649Z,49.70
2019-04-05T17:35:49.882Z,50.00
2019-04-05T17:37:26.826Z,50.00
2019-04-05T17:39:03.388Z,50.20
2019-04-05T17:40:39.561Z,50.40
2019-04-05T17:42:15.800Z,50.80
2019-04-05T17:43:52.035Z,51.00
2019-04-05T17:45:28.389Z,51.10
2019-04-05T17:47:04.729Z,51.50
2019-04-05T17:48:40.993Z,51.60
2019-04-05T17:50:30.644Z,52.10
2019-04-05T17:52:08.086Z,52.40
2019-04-05T17:53:44.323Z,52.60
2019-04-05T17:55:20.488Z,52.70
2019-04-05T17:56:57.000Z,52.50
2019-04-05T17:58:35.877Z,52.50
2019-04-05T18:00:14.015Z,52.90
2019-04-05T18:01:50.421Z,53.00
2019-04-05T18:03:27.777Z,53.10
2019-04-05T18:05:04.392Z,52.90
2019-04-05T18:06:40.547Z,53.10
2019-04-05T18:08:16.822Z,53.30
2019-04-05T18:09:53.076Z,53.50
2019-04-05T18:11:29.401Z,53.20
2019-04-05T18:13:05.910Z,53.30
2019-04-05T18:14:42.007Z,53.80
2019-04-05T18:16:19.495Z,54.20
2019-04-05T18:17:56.924Z,53.50
2019-04-05T18:19:33.172Z,53.60
2019-04-05T18:21:09.511Z,53.80
2019-04-05T18:22:45.608Z,53.90
2019-04-05T18:24:21.789Z,54.00
2019-04-05T18:25:57.959Z,54.20
2019-04-05T18:27:34.373Z,54.00
2019-04-05T18:29:10.617Z,54.00
2019-04-05T18:30:48.101Z,54.10
2019-04-05T18:32:24.443Z,54.60
2019-04-05T18:34:00.685Z,54.50
2019-04-05T18:35:36.781Z,54.70
2019-04-05T18:37:13.124Z,54.60
2019-04-05T18:38:49.230Z,55.00
2019-04-05T18:40:25.538Z,54.90
2019-04-05T18:42:01.801Z,54.90
2019-04-05T18:43:38.171Z,54.80
2019-04-05T18:45:14.672Z,54.90
2019-04-05T18:46:50.467Z,55.10
2019-04-05T18:48:26.738Z,55.40
2019-04-05T18:50:03.501Z,55.60
2019-04-05T18:51:39.936Z,55.50
2019-04-05T18:53:16.278Z,55.60
2019-04-05T18:54:53.576Z,55.60
2019-04-05T18:56:29.686Z,55.60
2019-04-05T18:58:06.032Z,56.00
2019-04-05T18:59:42.345Z,55.90
2019-04-05T19:01:18.641Z,55.90
2019-04-05T19:02:54.887Z,56.20
2019-04-05T19:04:31.053Z,56.50
2019-04-05T19:06:07.573Z,56.80
2019-04-05T19:07:43.896Z,56.90
2019-04-05T19:09:21.791Z,56.90
2019-04-05T19:10:59.246Z,56.90
2019-04-05T19:12:35.615Z,57.10
2019-04-05T19:14:12.235Z,57.10
2019-04-05T19:15:48.498Z,57.20
2019-04-05T19:17:24.800Z,57.40
2019-04-05T19:19:01.053Z,57.40
2019-04-05T19:20:38.594Z,57.50
2019-04-05T19:22:14.880Z,57.50
2019-04-05T19:23:51.410Z,57.70
2019-04-05T19:25:27.885Z,57.60
2019-04-05T19:27:04.308Z,58.00
2019-04-05T19:28:40.727Z,57.70
2019-04-05T19:49:59.686Z,58.70
2019-04-05T19:51:36.325Z,58.70
2019-04-05T19:53:12.596Z,58.70
2019-04-05T19:54:49.138Z,58.80
2019-04-05T19:56:25.364Z,58.80
2019-04-05T19:58:04.564Z,59.00
2019-04-05T19:59:40.998Z,59.10
2019-04-05T20:01:18.746Z,59.20
2019-04-05T20:02:55.150Z,59.30
2019-04-05T20:04:32.965Z,59.00
2019-04-05T20:06:10.446Z,59.40
2019-04-05T20:07:48.014Z,59.30
2019-04-05T20:09:24.655Z,59.20
2019-04-05T20:11:01.295Z,59.40
2019-04-05T20:12:37.628Z,59.30
2019-04-05T20:14:15.297Z,59.30
2019-04-05T20:15:52.898Z,59.60
2019-04-05T20:17:29.450Z,59.50
2019-04-05T20:19:05.919Z,59.70
2019-04-05T20:20:42.693Z,59.90
2019-04-05T20:22:19.001Z,60.00
2019-04-05T20:23:55.341Z,60.00
2019-04-05T20:25:31.540Z,60.20
2019-04-05T20:27:07.831Z,60.30
2019-04-05T20:28:44.278Z,60.30
2019-04-05T20:30:20.719Z,60.30
2019-04-05T20:31:56.950Z,60.80
2019-04-05T20:33:33.653Z,60.80
2019-04-05T20:35:10.460Z,60.90
2019-04-05T20:36:46.645Z,60.90
2019-04-05T20:38:23.088Z,61.10
2019-04-05T20:39:59.916Z,61.00
2019-04-05T20:41:36.708Z,61.10
2019-04-05T20:43:13.183Z,61.10
2019-04-05T20:44:49.582Z,62.30
2019-04-05T20:46:25.826Z,61.40
2019-04-05T20:48:02.035Z,61.60
2019-04-05T20:49:38.454Z,61.50
2019-04-05T20:51:15.920Z,61.60
2019-04-05T20:52:53.612Z,61.70
2019-04-05T20:54:29.782Z,61.40
2019-04-05T20:56:06.108Z,61.60
2019-04-05T20:57:42.317Z,61.80
2019-04-05T20:59:18.792Z,62.00
2019-04-05T21:00:55.268Z,62.00
2019-04-05T21:02:32.652Z,62.20
2019-04-05T21:04:08.981Z,62.10
2019-04-05T21:05:45.322Z,62.10
2019-04-05T21:07:21.545Z,62.00